UGKO

Details ICAO UGKO (KUT)
Name KOPITNARI
Region Georgia
Timezone Asia/Tbilisi (UTC+4.0)
Plans Departing 18
Arriving 24
Stats Elevation 223 ft / 68 m (AMSL)
Location 42.176653° 42.482583°
Runways 1
Magnetic Variation 6.773° E
Sunrise 2018-05-24 01:42:58 UTC / 2018-05-24 05:42:58 Local
Sunset 2018-05-24 16:33:41 UTC / 2018-05-24 20:33:41 Local
Advertisement - Login to hide

Runways

ID Width Length Bearing (true) Bearing (mag) Surface Threshold Offset Overrun Length
08 144 ft / 44 m 8,171 ft / 2,490 m 80.55° 73.78° Concrete 0 ft / 0 m 60 ft / 18 m
26 144 ft / 44 m 8,171 ft / 2,490 m 260.57° 253.80° Concrete 0 ft / 0 m 60 ft / 18 m

Map

Weather


0- 5 10 15 20 25 30 35+ Temperature / ° C

Clouds and Precipitation
Forecast for 2018-05-24 18:00 UTC. Updated 2 hours ago

Ground ~20,000 ft ~40,000 ft Winds

METAR

UGKO 241930Z 09004KT 9999 SCT030 BKN044 19/18 Q1011 NOSIG

TAF

TAF UGKO 241700Z 2418/2518 25004KT 9999 SCT030 BKN045 TX26/2511Z TN18/2501Z TEMPO 2500/2505 4000 BR TEMPO 2508/2515 25014KT

Frequencies

Tower 125.50 MHz KUTAISI TWR
Warning: Do not use this data for real-world aviation or navigation. No guarantee of current accuracy is given.